sensor_id;sensor_type;location;lat;lon;timestamp;pressure;altitude;pressure_sealevel;temperature
17716;BMP280;50159;49.426;11.182;2022-11-03T00:02:09;98244.63;;;4.14
17716;BMP280;50159;49.426;11.182;2022-11-03T00:04:36;98254.06;;;4.14
17716;BMP280;50159;49.426;11.182;2022-11-03T00:07:03;98245.69;;;4.09
17716;BMP280;50159;49.426;11.182;2022-11-03T00:09:30;98241.59;;;4.05
17716;BMP280;50159;49.426;11.182;2022-11-03T00:11:57;98241.59;;;4.05
17716;BMP280;50159;49.426;11.182;2022-11-03T00:14:24;98246.91;;;4.02
17716;BMP280;50159;49.426;11.182;2022-11-03T00:16:51;98242.56;;;4.02
17716;BMP280;50159;49.426;11.182;2022-11-03T00:19:17;98234.66;;;4.07
17716;BMP280;50159;49.426;11.182;2022-11-03T00:21:45;98228.44;;;4.11
17716;BMP280;50159;49.426;11.182;2022-11-03T00:24:12;98238.81;;;4.09
17716;BMP280;50159;49.426;11.182;2022-11-03T00:26:39;98226.03;;;4.08
17716;BMP280;50159;49.426;11.182;2022-11-03T00:29:12;98221.84;;;4.05
17716;BMP280;50159;49.426;11.182;2022-11-03T00:31:43;98221.25;;;3.99
17716;BMP280;50159;49.426;11.182;2022-11-03T00:34:10;98225.78;;;3.94
17716;BMP280;50159;49.426;11.182;2022-11-03T00:36:42;98224.97;;;3.94
17716;BMP280;50159;49.426;11.182;2022-11-03T00:39:10;98228.50;;;3.91
17716;BMP280;50159;49.426;11.182;2022-11-03T00:41:38;98225.16;;;3.89
17716;BMP280;50159;49.426;11.182;2022-11-03T00:44:06;98217.31;;;3.92
17716;BMP280;50159;49.426;11.182;2022-11-03T00:46:33;98216.41;;;3.93
17716;BMP280;50159;49.426;11.182;2022-11-03T00:49:03;98211.25;;;3.93
17716;BMP280;50159;49.426;11.182;2022-11-03T00:51:30;98208.53;;;3.96
17716;BMP280;50159;49.426;11.182;2022-11-03T00:53:59;98209.31;;;3.98
17716;BMP280;50159;49.426;11.182;2022-11-03T00:56:38;98204.03;;;4.01
17716;BMP280;50159;49.426;11.182;2022-11-03T00:59:07;98193.88;;;3.98
17716;BMP280;50159;49.426;11.182;2022-11-03T01:01:39;98202.50;;;3.97
17716;BMP280;50159;49.426;11.182;2022-11-03T01:04:13;98202.78;;;3.91
17716;BMP280;50159;49.426;11.182;2022-11-03T01:07:00;98197.63;;;3.91
17716;BMP280;50159;49.426;11.182;2022-11-03T01:09:33;98204.44;;;3.92
17716;BMP280;50159;49.426;11.182;2022-11-03T01:12:16;98196.72;;;3.92
17716;BMP280;50159;49.426;11.182;2022-11-03T01:14:50;98190.81;;;3.90
17716;BMP280;50159;49.426;11.182;2022-11-03T01:17:27;98190.94;;;3.87
17716;BMP280;50159;49.426;11.182;2022-11-03T01:19:54;98189.41;;;3.83
17716;BMP280;50159;49.426;11.182;2022-11-03T01:22:22;98189.47;;;3.82
17716;BMP280;50159;49.426;11.182;2022-11-03T01:24:49;98182.88;;;3.77
17716;BMP280;50159;49.426;11.182;2022-11-03T01:27:20;98175.25;;;3.74
17716;BMP280;50159;49.426;11.182;2022-11-03T01:29:50;98162.41;;;3.74
17716;BMP280;50159;49.426;11.182;2022-11-03T01:32:17;98164.06;;;3.75
17716;BMP280;50159;49.426;11.182;2022-11-03T01:34:44;98164.91;;;3.75
17716;BMP280;50159;49.426;11.182;2022-11-03T01:37:11;98167.38;;;3.78
17716;BMP280;50159;49.426;11.182;2022-11-03T01:39:37;98168.13;;;3.80
17716;BMP280;50159;49.426;11.182;2022-11-03T01:42:04;98148.44;;;3.79
17716;BMP280;50159;49.426;11.182;2022-11-03T01:44:35;98153.66;;;3.78
17716;BMP280;50159;49.426;11.182;2022-11-03T01:47:14;98156.41;;;3.73
17716;BMP280;50159;49.426;11.182;2022-11-03T01:50:07;98143.91;;;3.66
17716;BMP280;50159;49.426;11.182;2022-11-03T01:52:57;98137.22;;;3.62
17716;BMP280;50159;49.426;11.182;2022-11-03T01:55:29;98137.44;;;3.57
17716;BMP280;50159;49.426;11.182;2022-11-03T01:58:18;98148.91;;;3.51
17716;BMP280;50159;49.426;11.182;2022-11-03T02:00:50;98146.50;;;3.46
17716;BMP280;50159;49.426;11.182;2022-11-03T02:03:19;98138.72;;;3.48
17716;BMP280;50159;49.426;11.182;2022-11-03T02:05:48;98142.13;;;3.48
17716;BMP280;50159;49.426;11.182;2022-11-03T02:08:22;98139.56;;;3.48
17716;BMP280;50159;49.426;11.182;2022-11-03T02:10:51;98137.06;;;3.47
17716;BMP280;50159;49.426;11.182;2022-11-03T02:13:22;98137.19;;;3.44
17716;BMP280;50159;49.426;11.182;2022-11-03T02:15:55;98132.88;;;3.44
17716;BMP280;50159;49.426;11.182;2022-11-03T02:18:29;98130.25;;;3.46
17716;BMP280;50159;49.426;11.182;2022-11-03T02:24:14;98126.00;;;3.45
17716;BMP280;50159;49.426;11.182;2022-11-03T02:26:48;98131.06;;;3.46
17716;BMP280;50159;49.426;11.182;2022-11-03T02:29:16;98123.50;;;3.43
17716;BMP280;50159;49.426;11.182;2022-11-03T02:31:57;98117.66;;;3.40
17716;BMP280;50159;49.426;11.182;2022-11-03T02:34:39;98118.44;;;3.42
17716;BMP280;50159;49.426;11.182;2022-11-03T02:37:16;98118.56;;;3.39
17716;BMP280;50159;49.426;11.182;2022-11-03T02:39:51;98113.53;;;3.36
17716;BMP280;50159;49.426;11.182;2022-11-03T02:42:23;98106.59;;;3.38
17716;BMP280;50159;49.426;11.182;2022-11-03T02:44:52;98099.75;;;3.38
17716;BMP280;50159;49.426;11.182;2022-11-03T02:47:22;98095.47;;;3.37
17716;BMP280;50159;49.426;11.182;2022-11-03T02:49:53;98085.25;;;3.36
17716;BMP280;50159;49.426;11.182;2022-11-03T02:52:45;98088.94;;;3.31
17716;BMP280;50159;49.426;11.182;2022-11-03T02:56:00;98083.13;;;3.27
17716;BMP280;50159;49.426;11.182;2022-11-03T02:59:10;98092.66;;;3.24
17716;BMP280;50159;49.426;11.182;2022-11-03T03:01:45;98078.22;;;3.21
17716;BMP280;50159;49.426;11.182;2022-11-03T03:04:34;98070.44;;;3.23
17716;BMP280;50159;49.426;11.182;2022-11-03T03:07:07;98067.94;;;3.21
17716;BMP280;50159;49.426;11.182;2022-11-03T03:09:44;98062.88;;;3.20
17716;BMP280;50159;49.426;11.182;2022-11-03T03:12:16;98058.63;;;3.19
17716;BMP280;50159;49.426;11.182;2022-11-03T03:14:45;98062.94;;;3.18
17716;BMP280;50159;49.426;11.182;2022-11-03T03:17:50;98061.97;;;3.21
17716;BMP280;50159;49.426;11.182;2022-11-03T03:20:27;98055.09;;;3.21
17716;BMP280;50159;49.426;11.182;2022-11-03T03:23:07;98049.06;;;3.22
17716;BMP280;50159;49.426;11.182;2022-11-03T03:25:48;98048.28;;;3.20
17716;BMP280;50159;49.426;11.182;2022-11-03T03:28:25;98045.88;;;3.17
17716;BMP280;50159;49.426;11.182;2022-11-03T03:30:57;98055.56;;;3.11
17716;BMP280;50159;49.426;11.182;2022-11-03T03:33:28;98052.22;;;3.09
17716;BMP280;50159;49.426;11.182;2022-11-03T03:35:58;98048.88;;;3.07
17716;BMP280;50159;49.426;11.182;2022-11-03T03:38:34;98047.16;;;3.08
17716;BMP280;50159;49.426;11.182;2022-11-03T03:41:04;98043.69;;;3.09
17716;BMP280;50159;49.426;11.182;2022-11-03T03:43:37;98039.31;;;3.11
17716;BMP280;50159;49.426;11.182;2022-11-03T03:46:09;98042.00;;;3.08
17716;BMP280;50159;49.426;11.182;2022-11-03T03:48:37;98033.47;;;3.07
17716;BMP280;50159;49.426;11.182;2022-11-03T03:51:04;98031.81;;;3.06
17716;BMP280;50159;49.426;11.182;2022-11-03T03:53:32;98027.63;;;3.04
17716;BMP280;50159;49.426;11.182;2022-11-03T03:55:59;98025.00;;;3.05
17716;BMP280;50159;49.426;11.182;2022-11-03T03:58:25;98016.53;;;3.03
17716;BMP280;50159;49.426;11.182;2022-11-03T04:00:52;97990.06;;;3.01
17716;BMP280;50159;49.426;11.182;2022-11-03T04:03:24;98006.25;;;3.03
17716;BMP280;50159;49.426;11.182;2022-11-03T04:05:53;98011.66;;;2.97
17716;BMP280;50159;49.426;11.182;2022-11-03T04:08:19;98004.00;;;2.96
17716;BMP280;50159;49.426;11.182;2022-11-03T04:10:46;98006.50;;;2.97
17716;BMP280;50159;49.426;11.182;2022-11-03T04:13:32;98006.50;;;2.97
17716;BMP280;50159;49.426;11.182;2022-11-03T04:16:17;98009.97;;;2.96
17716;BMP280;50159;49.426;11.182;2022-11-03T04:19:03;98012.63;;;2.95
17716;BMP280;50159;49.426;11.182;2022-11-03T04:21:48;98011.03;;;2.92
17716;BMP280;50159;49.426;11.182;2022-11-03T04:24:33;98012.06;;;2.89
17716;BMP280;50159;49.426;11.182;2022-11-03T04:27:20;98008.97;;;2.81
17716;BMP280;50159;49.426;11.182;2022-11-03T04:29:51;98004.75;;;2.80
17716;BMP280;50159;49.426;11.182;2022-11-03T04:32:18;98001.41;;;2.78
17716;BMP280;50159;49.426;11.182;2022-11-03T04:34:47;97994.63;;;2.75
17716;BMP280;50159;49.426;11.182;2022-11-03T04:37:15;97998.00;;;2.77
17716;BMP280;50159;49.426;11.182;2022-11-03T04:39:42;97986.75;;;2.80
17716;BMP280;50159;49.426;11.182;2022-11-03T04:42:20;97985.09;;;2.79
17716;BMP280;50159;49.426;11.182;2022-11-03T04:44:48;97988.34;;;2.82
17716;BMP280;50159;49.426;11.182;2022-11-03T04:47:17;97980.59;;;2.84
17716;BMP280;50159;49.426;11.182;2022-11-03T04:49:46;97978.84;;;2.84
17716;BMP280;50159;49.426;11.182;2022-11-03T04:52:18;97975.50;;;2.82
17716;BMP280;50159;49.426;11.182;2022-11-03T04:54:49;97976.34;;;2.83
17716;BMP280;50159;49.426;11.182;2022-11-03T04:57:18;97977.13;;;2.85
17716;BMP280;50159;49.426;11.182;2022-11-03T04:59:48;97975.38;;;2.85
17716;BMP280;50159;49.426;11.182;2022-11-03T05:02:19;97968.56;;;2.84
17716;BMP280;50159;49.426;11.182;2022-11-03T05:04:46;97972.03;;;2.83
17716;BMP280;50159;49.426;11.182;2022-11-03T05:07:33;97967.25;;;2.76
17716;BMP280;50159;49.426;11.182;2022-11-03T05:10:03;97952.09;;;2.70
17716;BMP280;50159;49.426;11.182;2022-11-03T05:12:30;97955.63;;;2.67
17716;BMP280;50159;49.426;11.182;2022-11-03T05:14:57;97943.78;;;2.65
17716;BMP280;50159;49.426;11.182;2022-11-03T05:17:27;97940.44;;;2.63
17716;BMP280;50159;49.426;11.182;2022-11-03T05:19:59;97927.59;;;2.63
17716;BMP280;50159;49.426;11.182;2022-11-03T05:22:34;97935.16;;;2.66
17716;BMP280;50159;49.426;11.182;2022-11-03T05:25:31;97940.09;;;2.70
17716;BMP280;50159;49.426;11.182;2022-11-03T05:28:00;97933.00;;;2.75
17716;BMP280;50159;49.426;11.182;2022-11-03T05:30:26;97927.03;;;2.75
17716;BMP280;50159;49.426;11.182;2022-11-03T05:32:53;97927.13;;;2.73
17716;BMP280;50159;49.426;11.182;2022-11-03T05:35:21;97908.44;;;2.70
17716;BMP280;50159;49.426;11.182;2022-11-03T05:37:49;97909.34;;;2.69
17716;BMP280;50159;49.426;11.182;2022-11-03T05:40:34;97903.47;;;2.67
17716;BMP280;50159;49.426;11.182;2022-11-03T05:43:01;97902.56;;;2.68
17716;BMP280;50159;49.426;11.182;2022-11-03T05:45:31;97896.50;;;2.69
17716;BMP280;50159;49.426;11.182;2022-11-03T05:48:02;97889.66;;;2.69
17716;BMP280;50159;49.426;11.182;2022-11-03T05:50:33;97894.03;;;2.67
17716;BMP280;50159;49.426;11.182;2022-11-03T05:53:46;97894.09;;;2.66
17716;BMP280;50159;49.426;11.182;2022-11-03T05:56:18;97892.44;;;2.65
17716;BMP280;50159;49.426;11.182;2022-11-03T05:58:48;97889.97;;;2.62
17716;BMP280;50159;49.426;11.182;2022-11-03T06:01:30;97885.66;;;2.63
17716;BMP280;50159;49.426;11.182;2022-11-03T06:04:25;97874.72;;;2.59
17716;BMP280;50159;49.426;11.182;2022-11-03T06:06:58;97876.25;;;2.63
17716;BMP280;50159;49.426;11.182;2022-11-03T06:09:26;97874.53;;;2.64
17716;BMP280;50159;49.426;11.182;2022-11-03T06:11:56;97864.19;;;2.65
17716;BMP280;50159;49.426;11.182;2022-11-03T06:14:29;97867.50;;;2.67
17716;BMP280;50159;49.426;11.182;2022-11-03T06:17:04;97865.69;;;2.69
17716;BMP280;50159;49.426;11.182;2022-11-03T06:19:45;97856.19;;;2.71
17716;BMP280;50159;49.426;11.182;2022-11-03T06:22:21;97873.94;;;2.75
17716;BMP280;50159;49.426;11.182;2022-11-03T06:24:51;97859.34;;;2.77
17716;BMP280;50159;49.426;11.182;2022-11-03T06:27:27;97861.59;;;2.83
17716;BMP280;50159;49.426;11.182;2022-11-03T06:30:02;97856.31;;;2.86
17716;BMP280;50159;49.426;11.182;2022-11-03T06:32:31;97860.56;;;2.87
17716;BMP280;50159;49.426;11.182;2022-11-03T06:34:58;97864.75;;;2.90
17716;BMP280;50159;49.426;11.182;2022-11-03T06:37:31;97863.69;;;2.93
17716;BMP280;50159;49.426;11.182;2022-11-03T06:42:41;97859.66;;;3.06
17716;BMP280;50159;49.426;11.182;2022-11-03T06:45:19;97857.69;;;3.11
17716;BMP280;50159;49.426;11.182;2022-11-03T06:47:46;97860.00;;;3.17
17716;BMP280;50159;49.426;11.182;2022-11-03T06:50:30;97866.66;;;3.21
17716;BMP280;50159;49.426;11.182;2022-11-03T06:53:01;97869.06;;;3.24
17716;BMP280;50159;49.426;11.182;2022-11-03T06:55:32;97865.34;;;3.31
17716;BMP280;50159;49.426;11.182;2022-11-03T06:58:14;97866.66;;;3.39
17716;BMP280;50159;49.426;11.182;2022-11-03T07:00:42;97858.72;;;3.43
17716;BMP280;50159;49.426;11.182;2022-11-03T07:06:01;97863.72;;;3.63
17716;BMP280;50159;49.426;11.182;2022-11-03T07:08:36;97860.63;;;3.73
17716;BMP280;50159;49.426;11.182;2022-11-03T07:13:40;97860.06;;;4.02
17716;BMP280;50159;49.426;11.182;2022-11-03T07:16:30;97856.00;;;4.29
17716;BMP280;50159;49.426;11.182;2022-11-03T07:19:05;97854.25;;;4.62
17716;BMP280;50159;49.426;11.182;2022-11-03T07:21:43;97850.16;;;4.90
17716;BMP280;50159;49.426;11.182;2022-11-03T07:24:34;97845.03;;;5.05
17716;BMP280;50159;49.426;11.182;2022-11-03T07:27:23;97839.44;;;5.12
17716;BMP280;50159;49.426;11.182;2022-11-03T07:29:57;97832.88;;;5.22
17716;BMP280;50159;49.426;11.182;2022-11-03T07:32:30;97832.03;;;5.36
17716;BMP280;50159;49.426;11.182;2022-11-03T07:37:45;97832.16;;;5.49
17716;BMP280;50159;49.426;11.182;2022-11-03T07:40:17;97829.81;;;5.59
17716;BMP280;50159;49.426;11.182;2022-11-03T07:42:45;97822.66;;;5.80
17716;BMP280;50159;49.426;11.182;2022-11-03T07:45:42;97816.75;;;6.06
17716;BMP280;50159;49.426;11.182;2022-11-03T07:48:32;97800.34;;;6.35
17716;BMP280;50159;49.426;11.182;2022-11-03T07:51:31;97791.88;;;6.60
17716;BMP280;50159;49.426;11.182;2022-11-03T07:54:22;97795.00;;;6.79
17716;BMP280;50159;49.426;11.182;2022-11-03T07:56:54;97784.16;;;7.00
17716;BMP280;50159;49.426;11.182;2022-11-03T07:59:29;97775.25;;;7.17
17716;BMP280;50159;49.426;11.182;2022-11-03T08:01:57;97780.72;;;7.39
17716;BMP280;50159;49.426;11.182;2022-11-03T08:04:28;97770.84;;;7.58
17716;BMP280;50159;49.426;11.182;2022-11-03T08:06:56;97777.41;;;7.75
17716;BMP280;50159;49.426;11.182;2022-11-03T08:09:23;97772.78;;;7.92
17716;BMP280;50159;49.426;11.182;2022-11-03T08:11:50;97753.66;;;8.07
17716;BMP280;50159;49.426;11.182;2022-11-03T08:14:17;97750.75;;;8.24
17716;BMP280;50159;49.426;11.182;2022-11-03T08:16:44;97744.25;;;8.43
17716;BMP280;50159;49.426;11.182;2022-11-03T08:19:11;97738.31;;;8.65
17716;BMP280;50159;49.426;11.182;2022-11-03T08:21:38;97728.78;;;8.89
17716;BMP280;50159;49.426;11.182;2022-11-03T08:24:05;97723.03;;;9.08
17716;BMP280;50159;49.426;11.182;2022-11-03T08:26:32;97708.81;;;9.24
17716;BMP280;50159;49.426;11.182;2022-11-03T08:28:59;97708.81;;;9.47
17716;BMP280;50159;49.426;11.182;2022-11-03T08:31:25;97705.25;;;9.71
17716;BMP280;50159;49.426;11.182;2022-11-03T08:33:52;97710.06;;;9.99
17716;BMP280;50159;49.426;11.182;2022-11-03T08:36:19;97709.41;;;10.18
17716;BMP280;50159;49.426;11.182;2022-11-03T08:38:46;97713.31;;;10.34
17716;BMP280;50159;49.426;11.182;2022-11-03T08:41:13;97705.78;;;10.53
17716;BMP280;50159;49.426;11.182;2022-11-03T08:43:40;97697.34;;;10.71
17716;BMP280;50159;49.426;11.182;2022-11-03T08:46:07;97703.25;;;10.84
17716;BMP280;50159;49.426;11.182;2022-11-03T08:48:43;97688.19;;;10.98
17716;BMP280;50159;49.426;11.182;2022-11-03T08:51:10;97679.16;;;11.13
17716;BMP280;50159;49.426;11.182;2022-11-03T08:53:39;97670.84;;;11.29
17716;BMP280;50159;49.426;11.182;2022-11-03T08:56:08;97660.72;;;11.46
17716;BMP280;50159;49.426;11.182;2022-11-03T08:58:39;97659.69;;;11.69
17716;BMP280;50159;49.426;11.182;2022-11-03T09:01:06;97644.16;;;11.87
17716;BMP280;50159;49.426;11.182;2022-11-03T09:03:33;97642.38;;;12.08
17716;BMP280;50159;49.426;11.182;2022-11-03T09:06:00;97645.63;;;12.30
17716;BMP280;50159;49.426;11.182;2022-11-03T09:08:27;97646.09;;;12.44
17716;BMP280;50159;49.426;11.182;2022-11-03T09:11:14;97640.69;;;12.66
17716;BMP280;50159;49.426;11.182;2022-11-03T09:13:41;97643.50;;;12.83
17716;BMP280;50159;49.426;11.182;2022-11-03T09:16:07;97630.34;;;12.94
17716;BMP280;50159;49.426;11.182;2022-11-03T09:18:34;97637.94;;;13.06
17716;BMP280;50159;49.426;11.182;2022-11-03T09:21:01;97627.22;;;13.09
17716;BMP280;50159;49.426;11.182;2022-11-03T09:23:28;97619.25;;;13.20
17716;BMP280;50159;49.426;11.182;2022-11-03T09:25:54;97611.00;;;13.33
17716;BMP280;50159;49.426;11.182;2022-11-03T09:28:21;97605.06;;;13.50
17716;BMP280;50159;49.426;11.182;2022-11-03T09:30:48;97600.13;;;13.66
17716;BMP280;50159;49.426;11.182;2022-11-03T09:33:15;97593.06;;;13.75
17716;BMP280;50159;49.426;11.182;2022-11-03T09:35:42;97596.09;;;13.89
17716;BMP280;50159;49.426;11.182;2022-11-03T09:38:08;97582.03;;;14.00
17716;BMP280;50159;49.426;11.182;2022-11-03T09:40:36;97584.25;;;14.04
17716;BMP280;50159;49.426;11.182;2022-11-03T09:43:02;97584.19;;;14.13
17716;BMP280;50159;49.426;11.182;2022-11-03T09:45:31;97583.72;;;14.27
17716;BMP280;50159;49.426;11.182;2022-11-03T09:47:58;97583.97;;;14.33
17716;BMP280;50159;49.426;11.182;2022-11-03T09:50:24;97569.75;;;14.45
17716;BMP280;50159;49.426;11.182;2022-11-03T09:52:51;97569.97;;;14.52
17716;BMP280;50159;49.426;11.182;2022-11-03T09:55:26;97572.25;;;14.64
17716;BMP280;50159;49.426;11.182;2022-11-03T09:58:14;97576.59;;;14.73
17716;BMP280;50159;49.426;11.182;2022-11-03T10:00:41;97567.72;;;14.66
17716;BMP280;50159;49.426;11.182;2022-11-03T10:03:16;97574.03;;;14.63
17716;BMP280;50159;49.426;11.182;2022-11-03T10:05:44;97573.06;;;14.64
17716;BMP280;50159;49.426;11.182;2022-11-03T10:08:34;97558.53;;;14.79
17716;BMP280;50159;49.426;11.182;2022-11-03T10:11:01;97555.81;;;14.88
17716;BMP280;50159;49.426;11.182;2022-11-03T10:13:38;97556.03;;;15.04
17716;BMP280;50159;49.426;11.182;2022-11-03T10:16:08;97556.88;;;15.04
17716;BMP280;50159;49.426;11.182;2022-11-03T10:18:36;97552.19;;;14.99
17716;BMP280;50159;49.426;11.182;2022-11-03T10:21:15;97539.63;;;15.02
17716;BMP280;50159;49.426;11.182;2022-11-03T10:23:42;97536.19;;;15.01
17716;BMP280;50159;49.426;11.182;2022-11-03T10:26:16;97525.88;;;15.00
17716;BMP280;50159;49.426;11.182;2022-11-03T10:29:02;97521.00;;;15.22
17716;BMP280;50159;49.426;11.182;2022-11-03T10:31:39;97508.16;;;15.53
17716;BMP280;50159;49.426;11.182;2022-11-03T10:34:38;97520.03;;;15.65
17716;BMP280;50159;49.426;11.182;2022-11-03T10:37:25;97527.59;;;15.68
17716;BMP280;50159;49.426;11.182;2022-11-03T10:39:55;97517.84;;;15.61
17716;BMP280;50159;49.426;11.182;2022-11-03T10:42:29;97514.81;;;15.73
17716;BMP280;50159;49.426;11.182;2022-11-03T10:45:16;97506.44;;;15.94
17716;BMP280;50159;49.426;11.182;2022-11-03T10:47:43;97512.28;;;16.06
17716;BMP280;50159;49.426;11.182;2022-11-03T10:50:30;97510.38;;;16.23
17716;BMP280;50159;49.426;11.182;2022-11-03T10:52:57;97516.00;;;16.36
17716;BMP280;50159;49.426;11.182;2022-11-03T10:55:25;97495.53;;;16.47
17716;BMP280;50159;49.426;11.182;2022-11-03T10:57:53;97493.47;;;16.66
17716;BMP280;50159;49.426;11.182;2022-11-03T11:00:24;97492.66;;;16.74
17716;BMP280;50159;49.426;11.182;2022-11-03T11:02:58;97491.84;;;16.89
17716;BMP280;50159;49.426;11.182;2022-11-03T11:05:25;97498.19;;;17.04
17716;BMP280;50159;49.426;11.182;2022-11-03T11:07:53;97485.69;;;17.05
17716;BMP280;50159;49.426;11.182;2022-11-03T11:10:25;97470.91;;;17.28
17716;BMP280;50159;49.426;11.182;2022-11-03T11:21:01;97454.09;;;17.68
17716;BMP280;50159;49.426;11.182;2022-11-03T11:23:48;97453.59;;;17.72
17716;BMP280;50159;49.426;11.182;2022-11-03T11:31:40;97438.69;;;18.11
17716;BMP280;50159;49.426;11.182;2022-11-03T11:36:46;97431.59;;;18.11
17716;BMP280;50159;49.426;11.182;2022-11-03T11:47:45;97405.63;;;18.08
17716;BMP280;50159;49.426;11.182;2022-11-03T11:50:21;97409.75;;;18.03
17716;BMP280;50159;49.426;11.182;2022-11-03T11:53:20;97402.72;;;17.95
17716;BMP280;50159;49.426;11.182;2022-11-03T11:55:58;97399.91;;;17.89
17716;BMP280;50159;49.426;11.182;2022-11-03T11:58:52;97391.72;;;17.84
17716;BMP280;50159;49.426;11.182;2022-11-03T12:01:33;97393.38;;;17.77
17716;BMP280;50159;49.426;11.182;2022-11-03T12:04:17;97393.06;;;17.72
17716;BMP280;50159;49.426;11.182;2022-11-03T12:06:49;97387.22;;;17.55
17716;BMP280;50159;49.426;11.182;2022-11-03T12:09:23;97381.50;;;17.36
17716;BMP280;50159;49.426;11.182;2022-11-03T12:11:57;97388.91;;;17.25
17716;BMP280;50159;49.426;11.182;2022-11-03T12:14:33;97376.47;;;17.11
17716;BMP280;50159;49.426;11.182;2022-11-03T12:19:44;97361.84;;;16.85
17716;BMP280;50159;49.426;11.182;2022-11-03T12:22:39;97344.09;;;16.87
17716;BMP280;50159;49.426;11.182;2022-11-03T12:25:34;97340.00;;;16.84
17716;BMP280;50159;49.426;11.182;2022-11-03T12:28:01;97334.75;;;16.84
17716;BMP280;50159;49.426;11.182;2022-11-03T12:30:28;97337.22;;;16.70
17716;BMP280;50159;49.426;11.182;2022-11-03T12:32:55;97322.28;;;16.63
17716;BMP280;50159;49.426;11.182;2022-11-03T12:35:23;97328.53;;;16.46
17716;BMP280;50159;49.426;11.182;2022-11-03T12:37:49;97319.63;;;16.39
17716;BMP280;50159;49.426;11.182;2022-11-03T12:40:16;97311.78;;;16.32
17716;BMP280;50159;49.426;11.182;2022-11-03T12:42:43;97299.28;;;16.26
17716;BMP280;50159;49.426;11.182;2022-11-03T12:45:10;97306.16;;;16.11
17716;BMP280;50159;49.426;11.182;2022-11-03T12:47:39;97304.47;;;16.02
17716;BMP280;50159;49.426;11.182;2022-11-03T12:50:05;97298.25;;;15.95
17716;BMP280;50159;49.426;11.182;2022-11-03T12:52:32;97300.19;;;15.86
17716;BMP280;50159;49.426;11.182;2022-11-03T12:54:59;97291.16;;;15.80
17716;BMP280;50159;49.426;11.182;2022-11-03T12:57:26;97291.31;;;15.79
17716;BMP280;50159;49.426;11.182;2022-11-03T12:59:52;97284.28;;;15.79
17716;BMP280;50159;49.426;11.182;2022-11-03T13:02:19;97289.31;;;15.73
17716;BMP280;50159;49.426;11.182;2022-11-03T13:04:46;97280.16;;;15.69
17716;BMP280;50159;49.426;11.182;2022-11-03T13:07:13;97270.66;;;15.68
17716;BMP280;50159;49.426;11.182;2022-11-03T13:09:40;97269.00;;;15.67
17716;BMP280;50159;49.426;11.182;2022-11-03T13:12:11;97261.28;;;15.58
17716;BMP280;50159;49.426;11.182;2022-11-03T13:15:10;97262.22;;;15.49
17716;BMP280;50159;49.426;11.182;2022-11-03T13:17:39;97262.34;;;15.40
17716;BMP280;50159;49.426;11.182;2022-11-03T13:20:25;97252.31;;;15.27
17716;BMP280;50159;49.426;11.182;2022-11-03T13:22:52;97253.44;;;15.17
17716;BMP280;50159;49.426;11.182;2022-11-03T13:25:19;97240.94;;;15.11
17716;BMP280;50159;49.426;11.182;2022-11-03T13:27:46;97220.38;;;14.99
17716;BMP280;50159;49.426;11.182;2022-11-03T13:30:23;97221.69;;;14.95
17716;BMP280;50159;49.426;11.182;2022-11-03T13:32:51;97220.06;;;14.94
17716;BMP280;50159;49.426;11.182;2022-11-03T13:35:18;97223.81;;;14.92
17716;BMP280;50159;49.426;11.182;2022-11-03T13:37:45;97217.88;;;14.90
17716;BMP280;50159;49.426;11.182;2022-11-03T13:40:13;97217.53;;;14.85
17716;BMP280;50159;49.426;11.182;2022-11-03T13:43:03;97212.56;;;14.74
17716;BMP280;50159;49.426;11.182;2022-11-03T13:45:43;97210.06;;;14.65
17716;BMP280;50159;49.426;11.182;2022-11-03T13:48:10;97194.50;;;14.63
17716;BMP280;50159;49.426;11.182;2022-11-03T13:50:56;97189.44;;;14.62
17716;BMP280;50159;49.426;11.182;2022-11-03T13:53:25;97183.88;;;14.65
17716;BMP280;50159;49.426;11.182;2022-11-03T13:56:12;97187.97;;;14.59
17716;BMP280;50159;49.426;11.182;2022-11-03T13:58:47;97176.50;;;14.53
17716;BMP280;50159;49.426;11.182;2022-11-03T14:01:34;97181.00;;;14.43
17716;BMP280;50159;49.426;11.182;2022-11-03T14:04:02;97178.16;;;14.36
17716;BMP280;50159;49.426;11.182;2022-11-03T14:06:49;97182.38;;;14.30
17716;BMP280;50159;49.426;11.182;2022-11-03T14:09:16;97174.16;;;14.25
17716;BMP280;50159;49.426;11.182;2022-11-03T14:11:43;97179.34;;;14.17
17716;BMP280;50159;49.426;11.182;2022-11-03T14:14:28;97181.06;;;14.09
17716;BMP280;50159;49.426;11.182;2022-11-03T14:16:55;97166.28;;;14.00
17716;BMP280;50159;49.426;11.182;2022-11-03T14:19:22;97166.75;;;13.95
17716;BMP280;50159;49.426;11.182;2022-11-03T14:22:01;97170.34;;;13.94
17716;BMP280;50159;49.426;11.182;2022-11-03T14:24:27;97173.44;;;13.90
17716;BMP280;50159;49.426;11.182;2022-11-03T14:26:54;97161.44;;;13.88
17716;BMP280;50159;49.426;11.182;2022-11-03T14:29:21;97148.00;;;13.83
17716;BMP280;50159;49.426;11.182;2022-11-03T14:31:48;97139.66;;;13.79
17716;BMP280;50159;49.426;11.182;2022-11-03T14:34:14;97141.59;;;13.77
17716;BMP280;50159;49.426;11.182;2022-11-03T14:36:41;97138.28;;;13.75
17716;BMP280;50159;49.426;11.182;2022-11-03T14:39:08;97143.81;;;13.72
17716;BMP280;50159;49.426;11.182;2022-11-03T14:41:35;97141.53;;;13.69
17716;BMP280;50159;49.426;11.182;2022-11-03T14:44:20;97141.84;;;13.66
17716;BMP280;50159;49.426;11.182;2022-11-03T14:46:47;97130.84;;;13.63
17716;BMP280;50159;49.426;11.182;2022-11-03T14:49:13;97125.09;;;13.60
17716;BMP280;50159;49.426;11.182;2022-11-03T14:51:40;97124.91;;;13.53
17716;BMP280;50159;49.426;11.182;2022-11-03T14:54:07;97114.22;;;13.47
17716;BMP280;50159;49.426;11.182;2022-11-03T14:56:34;97120.56;;;13.44
17716;BMP280;50159;49.426;11.182;2022-11-03T14:59:00;97117.44;;;13.41
17716;BMP280;50159;49.426;11.182;2022-11-03T15:01:27;97119.66;;;13.36
17716;BMP280;50159;49.426;11.182;2022-11-03T15:03:54;97117.34;;;13.33
17716;BMP280;50159;49.426;11.182;2022-11-03T15:06:21;97107.53;;;13.27
17716;BMP280;50159;49.426;11.182;2022-11-03T15:08:47;97094.88;;;13.23
17716;BMP280;50159;49.426;11.182;2022-11-03T15:11:21;97094.53;;;13.18
17716;BMP280;50159;49.426;11.182;2022-11-03T15:13:48;97075.84;;;13.13
17716;BMP280;50159;49.426;11.182;2022-11-03T15:16:18;97075.34;;;13.10
17716;BMP280;50159;49.426;11.182;2022-11-03T15:18:45;97071.25;;;13.07